| Date | Time | Temp. (oF) | Dew Point (oF) | Rel. Hum. (%) | Press. (in.) | Wind Dir. | Wind Speed (mph) | Hourly Rainfall (in.) |
|
|---|---|---|---|---|---|---|---|---|---|
| 1 | 04/15 | 00:00 | 50 | 34 | 55 | 30.38 | SSW | 4 | 0.00 |
| 2 | 04/14 | 23:00 | 51 | 34 | 54 | 30.40 | SW | 3 | 0.00 |
| 3 | 04/14 | 22:00 | 51 | 37 | 59 | 30.40 | SW | 4 | 0.00 |
| 4 | 04/14 | 21:00 | 53 | 35 | 52 | 30.41 | SW | 2 | 0.00 |
| 5 | 04/14 | 20:00 | 58 | 32 | 38 | 30.41 | WSW | 2 | 0.00 |
| 6 | 04/14 | 19:00 | 61 | 31 | 33 | 30.41 | WNW | 2 | 0.00 |
| 7 | 04/14 | 18:00 | 62 | 29 | 30 | 30.43 | WNW | 2 | 0.00 |
| 8 | 04/14 | 17:00 | 63 | 32 | 32 | 30.44 | W | 4 | 0.00 |
| 9 | 04/14 | 16:00 | 63 | 35 | 36 | 30.46 | SSW | 4 | 0.00 |
| 10 | 04/14 | 15:00 | 62 | 35 | 38 | 30.50 | W | 2 | 0.00 |
| 11 | 04/14 | 14:00 | 62 | 38 | 42 | 30.52 | S | 4 | 0.00 |
| 12 | 04/14 | 13:00 | 59 | 40 | 51 | 30.54 | S | 4 | 0.00 |
| 13 | 04/14 | 12:00 | 56 | 49 | 79 | 30.57 | SW | 2 | 0.00 |
| 14 | 04/14 | 11:00 | 49 | 49 | 100 | 30.60 | SSE | 4 | 0.00 |
| 15 | 04/14 | 10:00 | 42 | 41 | 100 | 30.60 | SSW | 1 | 0.00 |
| 16 | 04/14 | 09:00 | 39 | 39 | 100 | 30.59 | SW | 2 | 0.00 |
| 17 | 04/14 | 08:00 | 39 | 39 | 100 | 30.58 | NNW | 3 | 0.00 |
| 18 | 04/14 | 07:00 | 37 | 36 | 100 | 30.56 | NNW | 0 | 0.00 |
| 19 | 04/14 | 06:00 | 36 | 36 | 100 | 30.55 | NW | 1 | 0.00 |
| 20 | 04/14 | 05:00 | 36 | 36 | 100 | 30.54 | NNW | 1 | 0.00 |
| 21 | 04/14 | 04:00 | 37 | 36 | 100 | 30.53 | N | 1 | 0.00 |
| 22 | 04/14 | 03:00 | 37 | 36 | 100 | 30.52 | WSW | 1 | 0.00 |
| 23 | 04/14 | 02:00 | 38 | 37 | 100 | 30.53 | WNW | 0 | 0.00 |
| 24 | 04/14 | 01:00 | 38 | 37 | 99 | 30.54 | N | 0 | 0.00 |